createdAt,value
2019-01-27T15:25:21.773Z,33.70
2019-01-27T15:27:51.704Z,37.10
2019-01-27T15:30:30.104Z,42.30
2019-01-27T15:32:59.964Z,44.40
2019-01-27T15:35:29.981Z,46.80
2019-01-27T15:37:59.732Z,49.00
2019-01-27T15:40:29.659Z,50.70
2019-01-27T15:42:59.442Z,52.10
2019-01-27T15:45:33.842Z,53.40
2019-01-27T15:48:03.617Z,54.40
2019-01-27T15:50:35.052Z,55.20
2019-01-27T15:53:05.899Z,56.30
2019-01-27T15:55:38.422Z,56.80
2019-01-27T15:58:09.334Z,57.00
2019-01-27T16:00:39.159Z,57.40
2019-01-27T16:03:09.985Z,58.20
2019-01-27T16:05:52.498Z,58.30
2019-01-27T16:08:22.512Z,58.40
2019-01-27T16:10:53.605Z,58.50
2019-01-27T16:13:24.128Z,59.00
2019-01-27T16:15:55.114Z,59.50
2019-01-27T16:18:25.000Z,59.70
2019-01-27T16:20:54.871Z,59.90
2019-01-27T16:23:32.304Z,60.80
2019-01-27T16:26:03.344Z,61.20
2019-01-27T16:28:34.474Z,60.90
2019-01-27T16:31:11.793Z,61.10
2019-01-27T16:33:46.008Z,62.00
2019-01-27T16:36:16.972Z,62.00
2019-01-27T16:38:47.149Z,61.90
2019-01-27T16:41:16.972Z,61.90
2019-01-27T16:43:46.747Z,62.40
2019-01-27T16:46:18.417Z,62.80
2019-01-27T16:48:48.193Z,63.10
2019-01-27T16:51:18.042Z,63.00
2019-01-27T16:53:47.836Z,63.40
2019-01-27T16:56:28.646Z,63.60
2019-01-27T16:58:59.523Z,64.20
2019-01-27T17:01:29.658Z,63.90
2019-01-27T17:03:59.433Z,64.10
2019-01-27T17:06:33.481Z,64.30
2019-01-27T17:09:05.871Z,63.90
2019-01-27T17:11:36.605Z,64.00
2019-01-27T17:14:06.481Z,65.00
2019-01-27T17:16:36.501Z,65.20
2019-01-27T17:19:06.517Z,64.60
2019-01-27T17:21:40.697Z,65.10
2019-01-27T17:24:10.570Z,65.60
2019-01-27T17:26:41.446Z,66.00
2019-01-27T17:31:56.770Z,88.20
2019-01-27T17:34:28.173Z,63.50
2019-01-27T17:36:58.681Z,63.70
2019-01-27T17:39:28.989Z,64.90
2019-01-27T17:41:58.952Z,65.90
2019-01-27T17:44:32.344Z,66.20
2019-01-27T17:47:02.333Z,66.60
2019-01-27T17:49:32.685Z,66.80
2019-01-27T17:52:02.801Z,67.40
2019-01-27T17:54:32.890Z,67.60
2019-01-27T17:57:04.383Z,68.20
2019-01-27T17:59:36.485Z,69.20
2019-01-27T18:02:17.180Z,68.30
2019-01-27T18:04:48.872Z,68.80
2019-01-27T18:07:20.389Z,69.20
2019-01-27T18:10:00.853Z,69.80
2019-01-27T18:12:32.588Z,69.50
2019-01-27T18:15:03.858Z,69.40
2019-01-27T18:17:35.053Z,68.70
2019-01-27T18:20:07.882Z,69.00
2019-01-27T18:22:38.110Z,69.20
2019-01-27T18:25:30.488Z,69.90
2019-01-27T18:28:25.146Z,70.30
2019-01-27T18:30:55.401Z,69.90
2019-01-27T18:33:25.388Z,69.60
2019-01-27T18:35:56.834Z,69.80
2019-01-27T18:38:26.977Z,69.50
2019-01-27T18:40:57.564Z,70.40
2019-01-27T18:43:27.608Z,70.30
2019-01-27T18:45:58.930Z,70.20
2019-01-27T18:48:32.037Z,70.50
2019-01-27T18:51:02.877Z,73.50
2019-01-27T18:53:47.048Z,70.70
2019-01-27T18:56:36.698Z,71.40
2019-01-27T18:59:24.744Z,71.30
2019-01-27T19:02:07.461Z,70.90
2019-01-27T19:04:39.110Z,70.80
2019-01-27T19:07:11.345Z,70.80
2019-01-27T19:09:57.010Z,71.30
2019-01-27T19:12:28.951Z,71.00
2019-01-27T19:15:30.379Z,71.60
2019-01-27T19:18:18.493Z,72.00
2019-01-27T19:20:50.441Z,70.50
2019-01-27T19:23:39.037Z,70.50
2019-01-27T19:26:10.792Z,71.00
2019-01-27T19:29:01.297Z,71.20
2019-01-27T19:31:32.852Z,71.40
2019-01-27T19:34:25.493Z,71.20
2019-01-27T19:36:57.987Z,72.50
2019-01-27T19:39:32.844Z,72.50
2019-01-27T19:42:07.520Z,72.00
2019-01-27T19:44:41.800Z,71.70
2019-01-27T19:47:13.394Z,71.80
2019-01-27T19:49:47.852Z,71.80
2019-01-27T19:52:19.572Z,72.10
2019-01-27T19:54:51.347Z,72.30
2019-01-27T19:57:23.310Z,72.80
2019-01-27T20:00:01.229Z,72.40
2019-01-27T20:02:36.432Z,72.30
2019-01-27T20:05:10.207Z,72.10
2019-01-27T20:07:41.793Z,72.10
2019-01-27T20:13:14.933Z,71.70
2019-01-27T20:15:54.104Z,71.30
2019-01-27T20:18:43.506Z,71.60
2019-01-27T20:21:15.180Z,71.50
2019-01-27T20:23:49.585Z,71.70
2019-01-27T20:26:36.315Z,71.80
2019-01-27T20:29:14.297Z,71.80
2019-01-27T20:31:57.934Z,81.50
2019-01-27T20:34:42.076Z,75.50
2019-01-27T20:37:21.515Z,69.30
2019-01-27T20:39:56.333Z,63.70
2019-01-27T20:42:33.942Z,59.40
